Time;durP1;ratioP1;P1;durP2;ratioP2;P2;SDS_P1;SDS_P2;PMS_P1;PMS_P2;Temp;Humidity;BMP_temperature;BMP_pressure;BME280_temperature;BME280_humidity;BME280_pressure;Samples;Min_cycle;Max_cycle;Signal;HPM_P1;HPM_P2
2021/09/30 00:00:57;;;;;;;3.00;1.98;;;21.00;79.20;;;;;;5000767;28;20468;-69
2021/09/30 00:03:25;;;;;;;4.47;3.00;;;21.00;79.00;;;;;;5001362;28;20030;-60
2021/09/30 00:05:52;;;;;;;6.53;2.88;;;21.00;79.00;;;;;;5005630;28;20083;-60
2021/09/30 00:08:20;;;;;;;3.25;2.53;;;21.20;77.50;;;;;;5011232;28;20437;-59
2021/09/30 00:11:00;;;;;;;3.72;2.03;;;21.40;75.90;;;;;;5011654;28;20108;-59
2021/09/30 00:13:40;;;;;;;2.55;1.10;;;21.60;76.20;;;;;;5010782;28;20054;-62
2021/09/30 00:46:24;;;;;;;2.25;2.05;;;21.70;73.30;;;;;;5011372;28;20099;-67
2021/09/30 02:29:26;;;;;;;3.50;1.67;;;21.10;79.80;;;;;;5008349;28;20042;-66
2021/09/30 03:00:14;;;;;;;5.20;1.42;;;20.90;80.40;;;;;;4990424;28;20034;-66
2021/09/30 03:02:45;;;;;;;2.50;1.63;;;20.90;81.40;;;;;;4993642;28;20044;-66
2021/09/30 03:05:15;;;;;;;3.13;1.45;;;20.90;81.30;;;;;;5004326;28;20023;-65
2021/09/30 03:07:43;;;;;;;2.60;1.40;;;20.90;81.60;;;;;;5005147;28;20022;-66
2021/09/30 03:10:13;;;;;;;5.95;1.27;;;20.90;81.70;;;;;;5008813;28;20025;-66
2021/09/30 03:12:41;;;;;;;1.80;1.58;;;20.90;82.60;;;;;;5002440;28;20026;-62
2021/09/30 03:15:17;;;;;;;2.40;1.45;;;20.90;82.30;;;;;;5011714;28;20055;-60
2021/09/30 03:17:51;;;;;;;7.32;2.47;;;21.00;82.10;;;;;;5011432;28;20498;-62
2021/09/30 03:23:19;;;;;;;4.22;1.83;;;21.10;82.00;;;;;;5022322;28;20049;-60
2021/09/30 03:25:49;;;;;;;5.00;1.77;;;21.20;81.20;;;;;;5010166;28;20399;-63
2021/09/30 03:28:24;;;;;;;5.22;2.33;;;21.20;80.80;;;;;;5011526;28;20034;-61
2021/09/30 03:30:59;;;;;;;6.82;3.65;;;21.30;80.80;;;;;;5010467;28;20034;-65
2021/09/30 03:33:28;;;;;;;5.28;3.53;;;21.30;80.90;;;;;;5090434;28;20022;-64
2021/09/30 03:35:55;;;;;;;7.03;3.33;;;21.30;80.60;;;;;;5009952;28;20094;-62
2021/09/30 03:38:24;;;;;;;5.57;3.05;;;21.30;80.30;;;;;;5009237;28;20036;-61
2021/09/30 03:40:52;;;;;;;6.30;2.90;;;21.30;80.30;;;;;;5011664;28;20037;-62
2021/09/30 03:43:20;;;;;;;5.43;3.45;;;21.40;80.20;;;;;;5006176;28;20343;-58
2021/09/30 03:45:48;;;;;;;4.80;2.95;;;21.40;80.20;;;;;;5011294;28;20030;-62
2021/09/30 03:48:17;;;;;;;11.60;3.88;;;21.30;80.10;;;;;;4993651;28;20108;-60
2021/09/30 04:01:17;;;;;;;171.48;93.43;;;21.50;80.00;;;;;;5013574;28;20049;-62
2021/09/30 04:03:45;;;;;;;92.63;49.20;;;21.50;80.20;;;;;;5009821;28;20026;-69
2021/09/30 04:06:17;;;;;;;103.53;57.13;;;21.50;79.40;;;;;;5013928;28;20025;-67
2021/09/30 04:08:45;;;;;;;115.57;61.53;;;21.60;79.60;;;;;;4994201;28;20030;-56
2021/09/30 04:11:13;;;;;;;204.45;112.38;;;21.60;79.20;;;;;;5012850;28;20033;-65
2021/09/30 04:13:41;;;;;;;181.55;102.75;;;21.70;79.40;;;;;;5007621;28;20090;-55
2021/09/30 04:16:08;;;;;;;172.15;102.85;;;21.70;79.10;;;;;;5012412;28;20018;-60
2021/09/30 04:18:36;;;;;;;151.45;88.03;;;21.80;78.70;;;;;;5013397;28;20022;-66
2021/09/30 04:21:03;;;;;;;197.23;107.82;;;21.90;78.30;;;;;;5014463;28;20029;-64
2021/09/30 04:23:31;;;;;;;154.60;89.60;;;21.90;79.10;;;;;;5011474;28;20046;-64
2021/09/30 04:25:58;;;;;;;191.10;106.72;;;21.90;78.60;;;;;;5011596;28;20022;-62
2021/09/30 04:28:29;;;;;;;188.80;107.70;;;21.90;79.10;;;;;;5012129;28;20062;-67
2021/09/30 04:31:03;;;;;;;174.65;98.47;;;21.90;79.10;;;;;;5013220;28;20048;-65
2021/09/30 04:34:06;;;;;;;174.48;101.40;;;22.00;78.70;;;;;;5003167;28;20060;-62
2021/09/30 04:36:34;;;;;;;189.82;106.70;;;22.00;78.70;;;;;;4892931;28;20496;-67
2021/09/30 04:39:02;;;;;;;163.73;91.15;;;22.00;78.50;;;;;;4989502;28;20074;-62
2021/09/30 04:41:29;;;;;;;190.93;105.97;;;22.10;78.10;;;;;;5009974;28;20103;-63
2021/09/30 04:44:26;;;;;;;183.57;103.80;;;22.00;78.70;;;;;;4989798;28;20368;-62
2021/09/30 04:47:16;;;;;;;147.52;83.93;;;21.90;79.00;;;;;;5008427;28;20014;-58
2021/09/30 04:49:44;;;;;;;151.95;85.90;;;22.00;78.60;;;;;;4983164;28;20042;-71
2021/09/30 04:52:11;;;;;;;160.43;93.45;;;22.00;78.80;;;;;;4991084;28;20142;-70
2021/09/30 04:54:39;;;;;;;155.02;87.03;;;22.00;79.00;;;;;;4994854;28;20023;-69
2021/09/30 04:57:07;;;;;;;140.02;78.18;;;22.00;79.70;;;;;;4994001;28;20476;-70
2021/09/30 04:59:34;;;;;;;128.45;75.93;;;22.00;78.90;;;;;;4976292;28;20251;-77
2021/09/30 05:02:02;;;;;;;145.95;86.30;;;22.00;78.80;;;;;;4994262;28;20029;-65
2021/09/30 05:04:29;;;;;;;136.57;82.45;;;22.00;78.80;;;;;;4992856;28;20042;-69
2021/09/30 05:06:57;;;;;;;140.18;78.97;;;22.10;78.60;;;;;;4976061;28;20023;-75
2021/09/30 05:09:26;;;;;;;121.85;70.97;;;22.00;78.70;;;;;;4991735;28;20027;-72
2021/09/30 05:11:57;;;;;;;132.93;76.47;;;22.10;77.60;;;;;;4992800;28;20022;-71
2021/09/30 05:14:25;;;;;;;111.55;63.28;;;22.00;78.60;;;;;;4975123;28;20052;-75
2021/09/30 05:16:52;;;;;;;115.38;67.88;;;22.10;78.10;;;;;;4992172;28;20026;-75
2021/09/30 05:19:21;;;;;;;118.72;67.88;;;22.10;78.40;;;;;;4975051;28;20088;-75
2021/09/30 05:21:48;;;;;;;122.18;70.63;;;22.10;77.10;;;;;;4992915;28;20058;-77
2021/09/30 05:24:16;;;;;;;93.47;57.42;;;22.10;78.40;;;;;;4993161;28;20121;-69
2021/09/30 05:26:44;;;;;;;121.05;66.95;;;22.10;76.60;;;;;;4993308;28;20396;-73
2021/09/30 05:29:11;;;;;;;98.53;54.75;;;22.10;77.70;;;;;;4994523;28;20030;-73
2021/09/30 05:31:39;;;;;;;107.00;63.42;;;22.10;76.20;;;;;;4992664;28;20111;-71
2021/09/30 05:34:06;;;;;;;92.85;51.38;;;22.20;76.90;;;;;;4992407;28;20037;-70
2021/09/30 05:36:34;;;;;;;83.50;50.33;;;22.10;76.20;;;;;;4992511;28;20018;-76
2021/09/30 05:39:01;;;;;;;97.25;56.67;;;22.00;76.20;;;;;;4993264;28;20022;-75
2021/09/30 05:41:31;;;;;;;107.05;61.17;;;21.90;77.00;;;;;;4987206;28;20048;-59
2021/09/30 05:44:07;;;;;;;94.78;52.88;;;22.00;77.80;;;;;;5006637;28;20055;-67
2021/09/30 05:46:37;;;;;;;84.97;50.85;;;21.90;77.50;;;;;;5006683;28;20404;-63
2021/09/30 05:49:05;;;;;;;85.45;49.03;;;21.80;77.30;;;;;;5009114;28;20034;-67
2021/09/30 05:51:33;;;;;;;103.30;61.42;;;21.80;77.80;;;;;;5007383;28;20403;-69
2021/09/30 05:54:00;;;;;;;92.18;57.10;;;21.70;78.60;;;;;;4999657;28;20033;-65
2021/09/30 05:56:28;;;;;;;87.32;52.17;;;21.70;78.10;;;;;;5008630;28;20036;-66
2021/09/30 05:58:56;;;;;;;104.85;59.47;;;21.60;78.50;;;;;;5009199;28;20053;-62
2021/09/30 06:12:41;;;;;;;81.07;46.50;;;21.40;79.80;;;;;;5007582;28;20030;-61
2021/09/30 06:15:18;;;;;;;86.13;53.25;;;21.30;80.10;;;;;;5003102;28;20026;-64
2021/09/30 06:17:46;;;;;;;75.00;45.70;;;21.30;80.90;;;;;;5007853;28;20046;-67
2021/09/30 06:20:14;;;;;;;75.93;49.08;;;21.30;81.00;;;;;;5008260;28;20018;-69
2021/09/30 06:22:41;;;;;;;86.40;50.35;;;21.20;81.30;;;;;;4989011;28;20061;-72
2021/09/30 06:25:09;;;;;;;73.70;45.35;;;21.20;81.70;;;;;;5009627;28;20108;-66
2021/09/30 06:27:37;;;;;;;75.45;48.80;;;21.10;82.00;;;;;;5009876;28;20029;-64
2021/09/30 06:30:06;;;;;;;67.50;42.53;;;21.10;82.10;;;;;;5009747;28;20101;-61
2021/09/30 06:32:33;;;;;;;77.05;46.65;;;21.10;82.00;;;;;;5010542;28;20033;-70
2021/09/30 06:35:01;;;;;;;67.85;40.60;;;21.00;82.50;;;;;;5010097;28;20076;-67
2021/09/30 06:37:28;;;;;;;77.32;47.70;;;21.10;82.40;;;;;;5007746;28;20022;-73
2021/09/30 06:39:55;;;;;;;69.88;43.47;;;21.10;82.70;;;;;;4992371;28;20026;-63
2021/09/30 06:42:29;;;;;;;70.07;41.92;;;21.00;82.90;;;;;;5010708;28;20026;-73
2021/09/30 06:45:01;;;;;;;76.68;46.38;;;21.00;83.10;;;;;;5009626;28;20388;-61
2021/09/30 06:47:39;;;;;;;72.50;46.67;;;20.90;83.00;;;;;;5013548;28;20029;-72
2021/09/30 06:50:14;;;;;;;71.32;46.40;;;20.90;83.20;;;;;;5014547;28;20022;-57
2021/09/30 06:52:42;;;;;;;66.45;41.35;;;20.90;83.10;;;;;;4994331;28;20507;-67
2021/09/30 06:55:11;;;;;;;66.15;40.17;;;20.90;83.90;;;;;;4995286;28;20482;-73
2021/09/30 06:57:39;;;;;;;76.15;46.95;;;20.90;83.40;;;;;;4995245;28;20030;-69
2021/09/30 07:00:09;;;;;;;71.30;42.75;;;20.80;83.30;;;;;;4995505;28;20022;-75
2021/09/30 07:02:41;;;;;;;69.13;40.45;;;20.80;83.90;;;;;;4996684;28;20034;-74
2021/09/30 07:05:09;;;;;;;;;;;20.80;83.60;;;;;;4996668;28;20033;-73
2021/09/30 07:07:37;;;;;;;63.35;35.85;;;20.80;83.80;;;;;;4995357;28;19906;-73
2021/09/30 07:10:08;;;;;;;63.58;35.88;;;20.70;84.00;;;;;;4994935;28;20023;-76
2021/09/30 07:12:36;;;;;;;70.60;38.73;;;20.70;84.00;;;;;;4994673;28;20033;-69
2021/09/30 07:15:05;;;;;;;62.90;40.15;;;20.70;83.90;;;;;;4993009;28;20018;-72
2021/09/30 07:17:33;;;;;;;57.47;35.58;;;20.70;83.90;;;;;;4993481;28;20030;-60
2021/09/30 07:20:00;;;;;;;48.97;30.05;;;20.70;84.20;;;;;;4992701;28;20549;-67
2021/09/30 07:22:28;;;;;;;51.78;31.85;;;20.70;84.90;;;;;;4993149;28;20099;-76
2021/09/30 07:24:55;;;;;;;51.53;31.70;;;20.70;84.40;;;;;;4983336;28;20027;-62
2021/09/30 07:27:22;;;;;;;54.92;32.67;;;20.70;84.50;;;;;;4991979;28;20030;-65
2021/09/30 07:29:51;;;;;;;63.60;37.25;;;20.70;85.30;;;;;;4990955;28;20110;-69
2021/09/30 07:32:18;;;;;;;45.47;26.33;;;20.70;84.20;;;;;;4993120;28;20070;-74
2021/09/30 07:34:55;;;;;;;59.35;33.65;;;20.70;84.90;;;;;;4993099;28;20038;-64
2021/09/30 07:37:26;;;;;;;58.08;34.00;;;20.60;84.80;;;;;;4993008;28;20054;-58
2021/09/30 07:40:09;;;;;;;57.50;32.88;;;20.60;84.70;;;;;;4993109;28;20037;-65
2021/09/30 07:42:43;;;;;;;44.95;28.42;;;20.60;84.70;;;;;;4992998;28;20053;-72
2021/09/30 07:45:24;;;;;;;48.55;29.67;;;20.60;84.80;;;;;;4992629;28;20037;-74
2021/09/30 07:48:00;;;;;;;46.63;29.63;;;20.60;85.00;;;;;;4992794;28;20083;-63
2021/09/30 07:50:31;;;;;;;53.72;34.38;;;20.60;85.30;;;;;;4993654;28;20030;-65
2021/09/30 07:52:58;;;;;;;54.30;30.75;;;20.60;84.80;;;;;;5010735;28;20050;-64
2021/09/30 07:55:31;;;;;;;59.22;36.58;;;20.60;84.70;;;;;;5013069;28;20088;-73
2021/09/30 07:57:59;;;;;;;44.15;26.63;;;20.50;84.70;;;;;;5012062;28;20471;-71
2021/09/30 08:03:20;;;;;;;49.88;28.58;;;20.50;85.30;;;;;;5001314;28;20053;-68
2021/09/30 08:06:17;;;;;;;51.60;29.60;;;20.50;85.40;;;;;;5012615;28;20026;-63
2021/09/30 08:08:45;;;;;;;42.80;26.17;;;20.50;85.20;;;;;;5010889;28;20041;-64
2021/09/30 08:11:15;;;;;;;52.30;27.55;;;20.40;85.60;;;;;;5012202;28;20087;-63
2021/09/30 08:17:03;;;;;;;47.72;29.35;;;20.40;85.60;;;;;;4993046;28;20049;-69
2021/09/30 08:19:31;;;;;;;44.25;28.13;;;20.40;85.70;;;;;;5010447;28;20030;-69
2021/09/30 08:21:59;;;;;;;46.78;30.20;;;20.30;85.80;;;;;;5003959;28;20037;-66
2021/09/30 08:24:26;;;;;;;42.42;26.13;;;20.40;86.00;;;;;;5007910;28;20065;-63
2021/09/30 08:26:54;;;;;;;46.60;28.40;;;20.30;85.90;;;;;;5008842;28;20018;-63
2021/09/30 08:29:25;;;;;;;42.47;25.83;;;20.30;85.90;;;;;;5010064;28;20097;-61
2021/09/30 08:31:53;;;;;;;44.90;25.50;;;20.30;85.90;;;;;;4990968;28;20049;-64
2021/09/30 08:34:20;;;;;;;39.55;25.63;;;20.30;86.00;;;;;;5007495;28;20030;-67
2021/09/30 08:36:48;;;;;;;36.75;24.52;;;20.30;86.20;;;;;;4991395;28;20052;-57
2021/09/30 08:39:16;;;;;;;40.53;23.80;;;20.20;86.10;;;;;;5009468;28;20072;-60
2021/09/30 08:41:43;;;;;;;45.15;24.98;;;20.30;86.30;;;;;;5008545;28;20022;-66
2021/09/30 08:44:11;;;;;;;35.33;22.65;;;20.20;86.30;;;;;;5007226;28;20022;-63
2021/09/30 08:46:38;;;;;;;34.55;22.65;;;20.20;86.20;;;;;;4987888;28;20067;-68
2021/09/30 08:49:06;;;;;;;38.20;22.27;;;20.20;86.20;;;;;;5007153;28;20357;-62
2021/09/30 08:51:35;;;;;;;42.65;23.25;;;20.20;86.20;;;;;;5006378;28;20041;-71
2021/09/30 08:54:04;;;;;;;33.45;20.92;;;20.20;86.40;;;;;;5010491;28;20115;-66
2021/09/30 08:56:33;;;;;;;34.35;21.33;;;20.20;86.40;;;;;;5003780;28;20094;-67
2021/09/30 08:59:19;;;;;;;33.40;21.55;;;20.20;86.50;;;;;;5009815;28;20094;-68
2021/09/30 09:02:14;;;;;;;30.83;19.65;;;20.10;86.50;;;;;;5004729;28;20387;-64
2021/09/30 09:05:01;;;;;;;33.42;20.58;;;20.10;86.50;;;;;;5002994;28;20098;-65
2021/09/30 09:07:31;;;;;;;35.55;22.42;;;20.00;86.50;;;;;;5010542;28;20527;-63
2021/09/30 09:10:26;;;;;;;39.90;24.10;;;20.10;86.80;;;;;;5007052;28;20048;-70
2021/09/30 09:13:08;;;;;;;33.97;22.52;;;20.00;87.10;;;;;;5004758;28;20047;-62
2021/09/30 09:15:54;;;;;;;34.33;20.30;;;20.00;87.20;;;;;;5005853;28;20041;-57
2021/09/30 09:18:46;;;;;;;32.60;20.98;;;20.00;87.00;;;;;;5007962;28;20088;-69
2021/09/30 09:21:20;;;;;;;33.97;20.17;;;20.00;86.90;;;;;;4963895;28;20037;-61
2021/09/30 09:23:54;;;;;;;32.13;20.58;;;20.00;86.70;;;;;;5010057;28;20079;-66
2021/09/30 09:26:42;;;;;;;34.00;21.02;;;20.00;86.90;;;;;;4986305;28;20018;-65
2021/09/30 09:29:12;;;;;;;34.17;20.75;;;20.00;86.80;;;;;;5009714;28;20052;-64
2021/09/30 09:31:51;;;;;;;29.83;20.70;;;20.00;86.90;;;;;;5008530;28;20029;-64
2021/09/30 09:34:28;;;;;;;32.67;20.73;;;20.00;87.00;;;;;;5005929;28;20046;-64
2021/09/30 09:37:19;;;;;;;28.55;19.67;;;20.00;87.00;;;;;;5008732;28;20122;-68
2021/09/30 09:39:48;;;;;;;32.20;20.77;;;20.00;86.90;;;;;;5009634;28;20041;-65
2021/09/30 09:42:24;;;;;;;35.65;21.77;;;20.00;87.10;;;;;;5008794;28;20030;-63
2021/09/30 09:45:00;;;;;;;31.38;20.15;;;20.00;87.00;;;;;;4985678;28;20038;-67
2021/09/30 09:47:43;;;;;;;28.73;19.13;;;19.90;86.90;;;;;;5008573;28;20383;-65
2021/09/30 09:50:21;;;;;;;28.30;19.85;;;19.90;86.90;;;;;;4991403;28;20030;-71
2021/09/30 09:52:52;;;;;;;30.67;19.58;;;19.90;86.80;;;;;;5005887;28;20080;-66
2021/09/30 09:55:32;;;;;;;31.77;19.97;;;20.00;86.80;;;;;;4986993;28;20022;-63
2021/09/30 09:58:17;;;;;;;28.95;19.98;;;20.00;86.90;;;;;;5009182;28;20291;-66
2021/09/30 10:00:53;;;;;;;27.83;18.40;;;19.90;86.60;;;;;;5010067;28;20498;-64
2021/09/30 10:03:49;;;;;;;29.98;19.95;;;20.00;86.80;;;;;;5006545;28;20037;-57
2021/09/30 10:06:20;;;;;;;29.35;18.85;;;20.00;86.70;;;;;;5001050;28;20135;-55
2021/09/30 10:08:48;;;;;;;26.00;17.07;;;20.00;86.70;;;;;;5006149;28;20372;-69
2021/09/30 10:11:16;;;;;;;29.90;18.35;;;20.00;86.50;;;;;;5005213;28;20274;-66
2021/09/30 10:13:43;;;;;;;25.83;16.58;;;20.00;86.60;;;;;;5008503;28;20033;-61
2021/09/30 10:16:32;;;;;;;27.27;17.55;;;19.90;86.40;;;;;;5002841;28;20018;-63
2021/09/30 10:19:07;;;;;;;28.33;16.90;;;19.90;86.20;;;;;;5008605;28;20057;-56
2021/09/30 10:21:53;;;;;;;25.55;16.25;;;20.00;86.50;;;;;;4989051;28;20034;-56
2021/09/30 10:24:23;;;;;;;24.40;16.33;;;19.90;86.30;;;;;;5008404;28;20352;-64
2021/09/30 10:26:59;;;;;;;26.25;16.67;;;19.90;86.30;;;;;;5009456;28;20028;-67
2021/09/30 10:29:45;;;;;;;21.58;14.80;;;19.90;86.30;;;;;;5011652;28;20053;-62
2021/09/30 10:32:16;;;;;;;26.23;17.35;;;19.90;86.30;;;;;;5011093;28;20026;-61
2021/09/30 10:34:52;;;;;;;26.25;16.38;;;19.90;86.30;;;;;;5006832;28;20674;-64
2021/09/30 10:37:31;;;;;;;23.13;16.17;;;19.90;86.20;;;;;;5011734;28;20028;-61
2021/09/30 10:40:23;;;;;;;25.27;15.85;;;19.90;86.40;;;;;;5011457;28;20442;-69
2021/09/30 10:43:00;;;;;;;24.45;15.15;;;19.90;86.40;;;;;;4998706;28;20038;-72
2021/09/30 10:45:39;;;;;;;23.58;16.73;;;19.90;86.30;;;;;;5007849;28;20033;-66
2021/09/30 10:48:30;;;;;;;23.23;14.20;;;19.80;86.30;;;;;;5012902;28;20040;-64
2021/09/30 10:50:59;;;;;;;22.52;13.82;;;19.80;86.20;;;;;;5013520;28;20262;-65
2021/09/30 10:53:47;;;;;;;22.98;14.10;;;19.80;86.10;;;;;;5010964;28;20158;-62
2021/09/30 10:56:41;;;;;;;21.52;15.45;;;19.80;86.30;;;;;;5012850;28;20036;-67
2021/09/30 10:59:09;;;;;;;24.73;16.00;;;19.70;86.30;;;;;;5013272;28;20101;-67
2021/09/30 11:01:48;;;;;;;24.05;16.08;;;19.70;86.30;;;;;;5012923;28;20113;-70
2021/09/30 11:04:16;;;;;;;26.30;15.60;;;19.70;86.30;;;;;;5013043;28;20030;-61
2021/09/30 11:07:06;;;;;;;23.67;15.50;;;19.70;86.30;;;;;;5012811;28;20022;-64
2021/09/30 11:09:34;;;;;;;20.92;14.27;;;19.70;86.40;;;;;;5012788;28;20053;-67
2021/09/30 11:12:12;;;;;;;19.75;13.38;;;19.70;86.40;;;;;;4995443;28;20445;-58
2021/09/30 11:14:53;;;;;;;22.60;14.77;;;19.70;86.40;;;;;;5012798;28;20029;-66
2021/09/30 11:17:40;;;;;;;21.90;15.02;;;19.70;86.40;;;;;;5012802;28;20025;-66
2021/09/30 11:20:36;;;;;;;24.02;14.77;;;19.70;86.40;;;;;;5012704;28;20075;-68
2021/09/30 11:23:04;;;;;;;21.15;14.88;;;19.70;86.30;;;;;;5012712;28;20127;-68
2021/09/30 11:26:11;;;;;;;25.35;15.20;;;19.70;86.70;;;;;;5004955;28;20053;-62
2021/09/30 11:28:38;;;;;;;21.25;13.30;;;19.70;86.60;;;;;;5010179;28;20483;-64
2021/09/30 11:31:35;;;;;;;24.80;14.02;;;19.70;86.30;;;;;;5012093;28;20026;-61
2021/09/30 11:34:28;;;;;;;25.25;14.13;;;19.70;86.40;;;;;;5008899;28;20029;-53
2021/09/30 11:37:11;;;;;;;18.92;13.40;;;19.70;86.40;;;;;;4994259;28;20041;-53
2021/09/30 11:39:39;;;;;;;19.45;12.05;;;19.70;86.50;;;;;;5005220;28;20113;-61
2021/09/30 11:42:07;;;;;;;20.20;12.43;;;19.70;86.10;;;;;;5009891;28;20034;-58
2021/09/30 11:44:38;;;;;;;19.65;12.50;;;19.70;86.20;;;;;;5011711;28;20062;-59
2021/09/30 11:47:05;;;;;;;17.75;11.02;;;19.70;86.30;;;;;;5011897;28;20033;-58
2021/09/30 11:49:43;;;;;;;17.95;12.00;;;19.80;86.10;;;;;;5013308;28;20033;-56
2021/09/30 11:52:17;;;;;;;21.48;11.68;;;19.70;86.20;;;;;;4991596;28;20053;-63
2021/09/30 11:54:45;;;;;;;19.75;11.77;;;19.80;86.30;;;;;;5009251;28;20030;-61
2021/09/30 11:57:32;;;;;;;17.85;11.73;;;19.80;86.00;;;;;;5012072;28;20018;-53
2021/09/30 12:00:11;;;;;;;18.27;10.82;;;19.80;86.30;;;;;;5010598;28;20046;-60
2021/09/30 12:03:00;;;;;;;15.48;11.20;;;19.80;85.90;;;;;;4988165;28;20106;-65
2021/09/30 12:05:30;;;;;;;18.73;11.52;;;19.80;86.10;;;;;;5010181;28;20033;-62
2021/09/30 12:07:58;;;;;;;17.85;11.57;;;19.80;86.10;;;;;;5009693;28;20090;-66
2021/09/30 12:10:27;;;;;;;19.58;10.75;;;19.80;86.10;;;;;;5012087;28;20054;-54
2021/09/30 12:13:01;;;;;;;17.58;11.75;;;19.80;86.00;;;;;;4988888;28;20384;-61
2021/09/30 12:15:29;;;;;;;17.35;11.90;;;19.80;86.00;;;;;;4994746;28;20022;-62
2021/09/30 12:17:56;;;;;;;15.52;10.70;;;19.80;85.90;;;;;;5011065;28;20029;-58
2021/09/30 12:20:24;;;;;;;18.23;12.45;;;19.80;85.80;;;;;;5010233;28;20101;-62
2021/09/30 12:23:00;;;;;;;15.23;9.38;;;19.80;85.80;;;;;;5006114;28;20045;-66
2021/09/30 12:25:29;;;;;;;15.80;10.68;;;19.80;85.70;;;;;;5008176;28;20018;-67
2021/09/30 12:27:59;;;;;;;18.70;11.07;;;19.80;85.70;;;;;;5009556;28;20163;-62
2021/09/30 12:30:29;;;;;;;16.13;10.45;;;19.80;85.70;;;;;;5009599;28;20126;-66
2021/09/30 12:33:06;;;;;;;17.27;10.88;;;19.90;85.60;;;;;;5005010;28;20051;-65
2021/09/30 12:35:42;;;;;;;15.30;9.52;;;19.90;85.70;;;;;;5009348;28;20014;-64
2021/09/30 12:38:16;;;;;;;13.25;9.35;;;19.90;85.70;;;;;;5009497;28;20661;-63
2021/09/30 12:40:57;;;;;;;15.73;10.23;;;19.90;85.80;;;;;;5009878;28;20065;-67
2021/09/30 12:43:30;;;;;;;15.93;10.88;;;19.80;85.50;;;;;;5003485;28;20034;-64
2021/09/30 12:46:01;;;;;;;16.60;10.48;;;19.90;85.50;;;;;;5007087;28;20029;-65
2021/09/30 12:48:30;;;;;;;20.58;11.63;;;19.90;85.50;;;;;;5009199;28;20038;-69
2021/09/30 12:51:06;;;;;;;20.63;10.60;;;19.90;85.50;;;;;;5009353;28;20018;-61
2021/09/30 12:53:43;;;;;;;14.85;9.93;;;19.80;85.40;;;;;;5004632;28;20125;-66
2021/09/30 12:56:21;;;;;;;14.57;9.90;;;19.90;85.40;;;;;;5009004;28;20034;-56
2021/09/30 12:58:51;;;;;;;18.42;10.30;;;19.80;85.40;;;;;;5009218;28;20029;-61
2021/09/30 13:01:36;;;;;;;19.08;10.20;;;19.80;85.30;;;;;;5010227;28;20086;-59
2021/09/30 13:04:06;;;;;;;13.73;10.02;;;19.80;85.40;;;;;;5005138;28;20117;-67
2021/09/30 13:06:34;;;;;;;13.75;9.30;;;19.80;85.30;;;;;;5008840;28;20029;-62
2021/09/30 13:09:02;;;;;;;13.57;9.85;;;19.80;85.30;;;;;;5012541;28;20410;-60
2021/09/30 13:11:36;;;;;;;11.70;9.15;;;19.80;85.20;;;;;;5011767;28;20376;-65
2021/09/30 13:14:16;;;;;;;14.80;9.32;;;19.80;85.30;;;;;;5011536;28;20479;-69
2021/09/30 13:16:52;;;;;;;14.60;10.25;;;19.80;85.30;;;;;;5010907;28;20040;-68
2021/09/30 13:19:49;;;;;;;12.38;9.15;;;19.90;85.30;;;;;;5011190;28;20046;-52
2021/09/30 13:22:20;;;;;;;16.75;10.15;;;19.80;85.20;;;;;;4993085;28;20464;-65
2021/09/30 13:24:50;;;;;;;16.52;8.93;;;19.80;85.30;;;;;;5011001;28;20537;-67
2021/09/30 13:27:23;;;;;;;14.63;9.98;;;19.80;85.30;;;;;;5010852;28;20029;-62
2021/09/30 13:29:52;;;;;;;12.35;8.40;;;19.80;85.30;;;;;;5010628;28;20026;-70
2021/09/30 13:32:20;;;;;;;11.98;8.60;;;19.80;85.30;;;;;;5010875;28;20471;-69
2021/09/30 13:34:49;;;;;;;12.70;9.23;;;19.80;85.30;;;;;;5013181;28;20034;-69
2021/09/30 13:37:16;;;;;;;15.35;8.80;;;19.80;85.30;;;;;;5011622;28;20079;-72
2021/09/30 13:39:44;;;;;;;12.98;7.57;;;19.80;85.30;;;;;;4994230;28;20048;-71
2021/09/30 13:42:11;;;;;;;14.13;8.63;;;19.70;85.20;;;;;;5011938;28;20045;-65
2021/09/30 13:44:39;;;;;;;14.02;8.57;;;19.70;85.30;;;;;;5011243;28;20026;-63
2021/09/30 13:47:07;;;;;;;12.30;8.32;;;19.70;85.40;;;;;;4993966;28;20023;-60
2021/09/30 13:49:35;;;;;;;11.23;7.70;;;19.60;85.40;;;;;;5011024;28;20022;-67
2021/09/30 13:52:03;;;;;;;10.52;7.18;;;19.60;85.50;;;;;;5010639;28;20046;-66
2021/09/30 13:54:30;;;;;;;13.88;8.23;;;19.60;85.60;;;;;;5010862;28;20117;-67
2021/09/30 13:56:58;;;;;;;14.60;7.10;;;19.60;85.60;;;;;;5010596;28;20030;-63
2021/09/30 13:59:25;;;;;;;10.85;7.78;;;19.60;85.60;;;;;;5011398;28;20057;-72
2021/09/30 14:01:52;;;;;;;13.95;7.40;;;19.50;85.70;;;;;;5011322;28;20032;-70
2021/09/30 14:04:20;;;;;;;11.63;8.27;;;19.50;85.70;;;;;;5011584;28;20128;-71
2021/09/30 14:06:52;;;;;;;13.27;7.85;;;19.60;85.60;;;;;;5011816;28;20366;-73
2021/09/30 14:09:19;;;;;;;;;;;19.50;85.60;;;;;;5011972;28;20030;-67
2021/09/30 14:11:47;;;;;;;11.57;8.00;;;19.50;85.70;;;;;;5011078;28;20371;-67
2021/09/30 14:14:27;;;;;;;10.25;7.32;;;19.50;85.60;;;;;;4991437;28;20035;-63
2021/09/30 14:16:54;;;;;;;9.60;7.70;;;19.50;85.60;;;;;;4991410;28;20030;-72
2021/09/30 14:19:25;;;;;;;8.68;7.13;;;19.50;85.60;;;;;;4991391;28;20049;-71
2021/09/30 14:21:54;;;;;;;10.93;6.80;;;19.40;86.20;;;;;;4982610;28;20504;-67
2021/09/30 14:24:30;;;;;;;10.93;7.90;;;19.40;85.80;;;;;;5007801;28;20071;-57
2021/09/30 14:26:58;;;;;;;12.35;8.77;;;19.40;85.80;;;;;;5009294;28;20591;-65
2021/09/30 14:29:26;;;;;;;11.13;7.93;;;19.40;85.80;;;;;;5008849;28;20503;-69
2021/09/30 14:31:53;;;;;;;11.95;8.05;;;19.40;85.80;;;;;;5008215;28;20030;-68
2021/09/30 14:34:21;;;;;;;11.65;8.05;;;19.40;85.90;;;;;;5007024;28;20037;-72
2021/09/30 14:36:49;;;;;;;9.20;7.00;;;19.30;85.80;;;;;;5008951;28;20018;-66
2021/09/30 14:39:16;;;;;;;12.02;7.25;;;19.30;86.00;;;;;;5009175;28;20110;-67
2021/09/30 14:41:44;;;;;;;9.05;7.05;;;19.30;86.10;;;;;;5008868;28;20408;-67
2021/09/30 14:44:12;;;;;;;11.20;7.75;;;19.30;86.00;;;;;;5005989;28;20061;-68
2021/09/30 14:46:39;;;;;;;10.82;7.03;;;19.30;86.10;;;;;;5009391;28;20060;-67
2021/09/30 14:49:07;;;;;;;10.20;7.50;;;19.20;86.00;;;;;;5009362;28;20029;-67
2021/09/30 14:51:34;;;;;;;13.00;8.48;;;19.20;86.00;;;;;;5004907;28;20073;-68
2021/09/30 14:54:01;;;;;;;11.52;7.18;;;19.20;86.10;;;;;;5004021;28;20026;-63
2021/09/30 14:56:29;;;;;;;10.25;7.07;;;19.20;86.10;;;;;;5008140;28;20556;-66
2021/09/30 14:58:56;;;;;;;12.02;7.25;;;19.20;86.20;;;;;;5008732;28;20476;-63
2021/09/30 15:01:24;;;;;;;9.82;6.32;;;19.20;86.10;;;;;;5007737;28;20029;-62
2021/09/30 15:03:51;;;;;;;11.27;6.22;;;19.10;86.20;;;;;;5004535;28;20038;-68
2021/09/30 15:06:19;;;;;;;9.65;6.28;;;19.10;86.10;;;;;;5008310;28;20097;-67
2021/09/30 15:08:47;;;;;;;11.15;6.43;;;19.10;86.20;;;;;;5010389;28;20026;-67
2021/09/30 15:11:14;;;;;;;8.73;6.47;;;19.10;86.20;;;;;;5011081;28;20106;-67
2021/09/30 15:13:41;;;;;;;12.15;6.55;;;19.10;86.20;;;;;;5005816;28;20022;-66
2021/09/30 15:16:10;;;;;;;9.18;6.53;;;19.10;86.20;;;;;;5012195;28;20037;-70
2021/09/30 15:19:24;;;;;;;11.35;6.43;;;19.10;86.20;;;;;;5009424;28;20109;-69
2021/09/30 15:21:25;;;;;;;13.07;6.63;;;19.10;86.30;;;;;;4995349;28;20480;-69
2021/09/30 15:24:02;;;;;;;9.35;5.80;;;19.10;86.20;;;;;;4987733;28;20397;-65
2021/09/30 15:26:31;;;;;;;10.35;7.05;;;19.10;86.30;;;;;;5010503;28;20507;-61
2021/09/30 15:28:58;;;;;;;10.02;6.75;;;19.00;86.80;;;;;;5010399;28;20033;-65
2021/09/30 15:31:27;;;;;;;8.80;5.93;;;19.00;86.40;;;;;;5010244;28;20112;-61
2021/09/30 15:33:58;;;;;;;10.20;6.22;;;19.00;86.30;;;;;;5004861;28;20383;-70
2021/09/30 15:36:27;;;;;;;14.15;6.90;;;19.00;86.40;;;;;;5011044;28;20468;-65
2021/09/30 15:38:59;;;;;;;8.90;6.03;;;19.00;86.50;;;;;;5011534;28;20547;-66
2021/09/30 15:41:26;;;;;;;8.15;5.72;;;19.00;86.80;;;;;;5009977;28;20033;-61
2021/09/30 15:43:54;;;;;;;11.40;6.00;;;19.00;86.70;;;;;;5005489;28;20124;-64
2021/09/30 15:46:22;;;;;;;8.85;5.78;;;19.00;86.70;;;;;;5011058;28;20384;-65
2021/09/30 15:48:49;;;;;;;11.30;6.30;;;19.00;87.00;;;;;;4994359;28;20552;-62
2021/09/30 15:51:17;;;;;;;10.75;5.53;;;19.00;86.90;;;;;;5010626;28;20030;-64
2021/09/30 15:53:44;;;;;;;9.35;5.82;;;19.00;87.60;;;;;;5005835;28;20121;-67
2021/09/30 15:56:13;;;;;;;9.85;5.80;;;19.00;87.00;;;;;;5012547;28;20025;-73
2021/09/30 15:58:41;;;;;;;6.93;5.38;;;19.00;86.60;;;;;;5005276;28;20021;-68
2021/09/30 16:01:09;;;;;;;8.95;5.43;;;19.00;86.90;;;;;;5008125;28;20018;-67
2021/09/30 16:03:36;;;;;;;11.75;6.10;;;18.90;86.80;;;;;;5010821;28;20030;-67
2021/09/30 16:06:04;;;;;;;9.52;5.88;;;19.00;86.80;;;;;;5009220;28;20029;-72